Serra do Camapua, Brazil
Current Conditions -  °F | °C
As of 7:00 PM on Saturday 22 Nov 2014 (Local Time) from SBBQ Reporting Station
Broken Clouds Broken Clouds  
Wind Chill: 79°   Ceiling: 4700
Heat Index: 80°   Visibility: 6mi
Dew Point: 61°   Wind: 6mph
Humidity: 54%   Direction: 50°NE
Pressure: 30"   Gusts: NA
Location:  20.77°S, 44°W
Report Text: SBBQ 222100Z 05005KT 9999 BKN047 26/16 Q1016
Loading
Personal Weather Stations






























Interactive Weather Map New forecast layout! Learn more

10-Day Weather Forecast

Advertisements
Track Severe Weather on mobile